sensor_id;sensor_type;location;lat;lon;timestamp;temperature;humidity
70051;SHT30;57391;51.306;22.680;2022-12-29T00:00:19;3.92;70.50
70051;SHT30;57391;51.306;22.680;2022-12-29T00:03:06;3.92;70.59
70051;SHT30;57391;51.306;22.680;2022-12-29T00:05:33;3.93;70.72
70051;SHT30;57391;51.306;22.680;2022-12-29T00:08:01;3.94;70.58
70051;SHT30;57391;51.306;22.680;2022-12-29T00:10:27;3.94;70.66
70051;SHT30;57391;51.306;22.680;2022-12-29T00:12:55;3.95;70.67
70051;SHT30;57391;51.306;22.680;2022-12-29T00:16:01;3.95;70.59
70051;SHT30;57391;51.306;22.680;2022-12-29T00:18:28;3.95;70.49
70051;SHT30;57391;51.306;22.680;2022-12-29T00:20:55;3.96;70.47
70051;SHT30;57391;51.306;22.680;2022-12-29T00:23:41;3.95;70.43
70051;SHT30;57391;51.306;22.680;2022-12-29T00:26:26;3.95;70.30
70051;SHT30;57391;51.306;22.680;2022-12-29T00:29:12;3.95;70.24
70051;SHT30;57391;51.306;22.680;2022-12-29T00:31:57;3.95;70.11
70051;SHT30;57391;51.306;22.680;2022-12-29T00:34:43;3.94;70.22
70051;SHT30;57391;51.306;22.680;2022-12-29T00:37:29;3.96;70.20
70051;SHT30;57391;51.306;22.680;2022-12-29T00:40:15;3.96;70.18
70051;SHT30;57391;51.306;22.680;2022-12-29T00:43:01;3.96;70.22
70051;SHT30;57391;51.306;22.680;2022-12-29T00:45:46;3.96;70.17
70051;SHT30;57391;51.306;22.680;2022-12-29T00:48:13;3.97;70.26
70051;SHT30;57391;51.306;22.680;2022-12-29T00:50:41;3.98;70.19
70051;SHT30;57391;51.306;22.680;2022-12-29T00:53:08;3.98;70.19
70051;SHT30;57391;51.306;22.680;2022-12-29T00:55:36;3.99;70.07
70051;SHT30;57391;51.306;22.680;2022-12-29T00:58:06;3.99;69.95
70051;SHT30;57391;51.306;22.680;2022-12-29T01:00:34;3.99;70.00
70051;SHT30;57391;51.306;22.680;2022-12-29T01:03:00;3.98;70.03
70051;SHT30;57391;51.306;22.680;2022-12-29T01:05:28;3.97;70.04
70051;SHT30;57391;51.306;22.680;2022-12-29T01:07:55;3.98;70.07
70051;SHT30;57391;51.306;22.680;2022-12-29T01:10:22;3.97;70.13
70051;SHT30;57391;51.306;22.680;2022-12-29T01:12:49;3.96;70.03
70051;SHT30;57391;51.306;22.680;2022-12-29T01:15:17;3.95;70.05
70051;SHT30;57391;51.306;22.680;2022-12-29T01:17:44;3.92;69.99
70051;SHT30;57391;51.306;22.680;2022-12-29T01:20:12;3.90;70.01
70051;SHT30;57391;51.306;22.680;2022-12-29T01:22:40;3.88;70.14
70051;SHT30;57391;51.306;22.680;2022-12-29T01:25:09;3.85;70.01
70051;SHT30;57391;51.306;22.680;2022-12-29T01:27:38;3.82;70.12
70051;SHT30;57391;51.306;22.680;2022-12-29T01:30:05;3.79;70.19
70051;SHT30;57391;51.306;22.680;2022-12-29T01:32:33;3.76;70.19
70051;SHT30;57391;51.306;22.680;2022-12-29T01:35:01;3.73;70.26
70051;SHT30;57391;51.306;22.680;2022-12-29T01:37:28;3.71;70.31
70051;SHT30;57391;51.306;22.680;2022-12-29T01:39:55;3.69;70.32
70051;SHT30;57391;51.306;22.680;2022-12-29T01:42:24;3.67;70.49
70051;SHT30;57391;51.306;22.680;2022-12-29T01:44:56;3.67;70.62
70051;SHT30;57391;51.306;22.680;2022-12-29T01:50:01;3.66;70.70
70051;SHT30;57391;51.306;22.680;2022-12-29T01:52:55;3.66;70.68
70051;SHT30;57391;51.306;22.680;2022-12-29T01:55:34;3.65;70.80
70051;SHT30;57391;51.306;22.680;2022-12-29T01:58:08;3.65;70.85
70051;SHT30;57391;51.306;22.680;2022-12-29T02:00:39;3.63;70.86
70051;SHT30;57391;51.306;22.680;2022-12-29T02:03:06;3.64;70.90
70051;SHT30;57391;51.306;22.680;2022-12-29T02:08:23;3.61;71.04
70051;SHT30;57391;51.306;22.680;2022-12-29T02:10:55;3.60;71.10
70051;SHT30;57391;51.306;22.680;2022-12-29T02:13:26;3.58;71.04
70051;SHT30;57391;51.306;22.680;2022-12-29T02:31:02;3.44;71.36
70051;SHT30;57391;51.306;22.680;2022-12-29T02:34:00;3.43;71.38
70051;SHT30;57391;51.306;22.680;2022-12-29T02:46:03;3.39;71.59
70051;SHT30;57391;51.306;22.680;2022-12-29T02:48:42;3.40;71.65
70051;SHT30;57391;51.306;22.680;2022-12-29T02:51:19;3.41;71.52
70051;SHT30;57391;51.306;22.680;2022-12-29T02:53:55;3.43;71.45
70051;SHT30;57391;51.306;22.680;2022-12-29T02:56:42;3.43;71.44
70051;SHT30;57391;51.306;22.680;2022-12-29T02:59:10;3.45;71.42
70051;SHT30;57391;51.306;22.680;2022-12-29T03:17:09;3.46;71.16
70051;SHT30;57391;51.306;22.680;2022-12-29T03:20:08;3.46;71.18
70051;SHT30;57391;51.306;22.680;2022-12-29T03:22:43;3.48;71.01
70051;SHT30;57391;51.306;22.680;2022-12-29T03:25:20;3.49;71.06
70051;SHT30;57391;51.306;22.680;2022-12-29T03:28:04;3.50;71.11
70051;SHT30;57391;51.306;22.680;2022-12-29T03:30:42;3.52;71.11
70051;SHT30;57391;51.306;22.680;2022-12-29T03:33:13;3.52;70.96
70051;SHT30;57391;51.306;22.680;2022-12-29T03:35:48;3.54;70.97
70051;SHT30;57391;51.306;22.680;2022-12-29T03:38:21;3.55;70.84
70051;SHT30;57391;51.306;22.680;2022-12-29T03:41:35;3.56;70.87
70051;SHT30;57391;51.306;22.680;2022-12-29T03:44:07;3.57;70.91
70051;SHT30;57391;51.306;22.680;2022-12-29T03:46:35;3.59;70.90
70051;SHT30;57391;51.306;22.680;2022-12-29T03:49:02;3.60;70.83
70051;SHT30;57391;51.306;22.680;2022-12-29T03:51:30;3.61;70.75
70051;SHT30;57391;51.306;22.680;2022-12-29T03:53:57;3.62;70.55
70051;SHT30;57391;51.306;22.680;2022-12-29T03:56:25;3.63;70.52
70051;SHT30;57391;51.306;22.680;2022-12-29T03:58:53;3.64;70.33
70051;SHT30;57391;51.306;22.680;2022-12-29T04:01:28;3.65;70.24
70051;SHT30;57391;51.306;22.680;2022-12-29T04:03:55;3.66;70.27
70051;SHT30;57391;51.306;22.680;2022-12-29T04:06:22;3.67;70.42
70051;SHT30;57391;51.306;22.680;2022-12-29T04:08:55;3.68;70.30
70051;SHT30;57391;51.306;22.680;2022-12-29T04:11:22;3.67;70.27
70051;SHT30;57391;51.306;22.680;2022-12-29T04:13:50;3.66;70.40
70051;SHT30;57391;51.306;22.680;2022-12-29T04:16:20;3.66;70.41
70051;SHT30;57391;51.306;22.680;2022-12-29T04:18:47;3.65;70.31
70051;SHT30;57391;51.306;22.680;2022-12-29T04:21:15;3.65;70.36
70051;SHT30;57391;51.306;22.680;2022-12-29T04:23:43;3.65;70.40
70051;SHT30;57391;51.306;22.680;2022-12-29T04:26:12;3.65;70.43
70051;SHT30;57391;51.306;22.680;2022-12-29T04:28:49;3.65;70.36
70051;SHT30;57391;51.306;22.680;2022-12-29T04:31:32;3.65;70.38
70051;SHT30;57391;51.306;22.680;2022-12-29T04:33:58;3.65;70.41
70051;SHT30;57391;51.306;22.680;2022-12-29T04:36:26;3.64;70.33
70051;SHT30;57391;51.306;22.680;2022-12-29T04:38:54;3.65;70.44
70051;SHT30;57391;51.306;22.680;2022-12-29T04:41:22;3.64;70.48
70051;SHT30;57391;51.306;22.680;2022-12-29T04:43:50;3.63;70.41
70051;SHT30;57391;51.306;22.680;2022-12-29T04:46:35;3.65;70.43
70051;SHT30;57391;51.306;22.680;2022-12-29T04:49:08;3.65;70.24
70051;SHT30;57391;51.306;22.680;2022-12-29T04:51:48;3.65;70.16
70051;SHT30;57391;51.306;22.680;2022-12-29T04:54:17;3.65;70.20
70051;SHT30;57391;51.306;22.680;2022-12-29T04:56:49;3.66;70.30
70051;SHT30;57391;51.306;22.680;2022-12-29T04:59:17;3.67;70.25
70051;SHT30;57391;51.306;22.680;2022-12-29T05:01:46;3.67;70.09
70051;SHT30;57391;51.306;22.680;2022-12-29T05:04:14;3.67;70.15
70051;SHT30;57391;51.306;22.680;2022-12-29T05:06:42;3.68;70.11
70051;SHT30;57391;51.306;22.680;2022-12-29T05:09:10;3.67;70.07
70051;SHT30;57391;51.306;22.680;2022-12-29T05:11:37;3.68;69.98
70051;SHT30;57391;51.306;22.680;2022-12-29T05:14:04;3.68;69.88
70051;SHT30;57391;51.306;22.680;2022-12-29T05:16:31;3.69;69.99
70051;SHT30;57391;51.306;22.680;2022-12-29T05:18:59;3.70;69.90
70051;SHT30;57391;51.306;22.680;2022-12-29T05:21:26;3.71;69.90
70051;SHT30;57391;51.306;22.680;2022-12-29T05:23:54;3.73;69.92
70051;SHT30;57391;51.306;22.680;2022-12-29T05:26:22;3.74;70.04
70051;SHT30;57391;51.306;22.680;2022-12-29T05:29:02;3.74;70.27
70051;SHT30;57391;51.306;22.680;2022-12-29T05:31:30;3.75;70.35
70051;SHT30;57391;51.306;22.680;2022-12-29T05:33:57;3.77;70.30
70051;SHT30;57391;51.306;22.680;2022-12-29T05:36:25;3.78;70.41
70051;SHT30;57391;51.306;22.680;2022-12-29T05:38:55;3.79;70.51
70051;SHT30;57391;51.306;22.680;2022-12-29T05:41:23;3.81;70.61
70051;SHT30;57391;51.306;22.680;2022-12-29T05:44:22;3.81;70.89
70051;SHT30;57391;51.306;22.680;2022-12-29T05:47:08;3.81;71.00
70051;SHT30;57391;51.306;22.680;2022-12-29T05:49:47;3.82;71.19
70051;SHT30;57391;51.306;22.680;2022-12-29T05:52:29;3.82;71.29
70051;SHT30;57391;51.306;22.680;2022-12-29T05:54:56;3.82;71.45
70051;SHT30;57391;51.306;22.680;2022-12-29T05:57:25;3.80;71.59
70051;SHT30;57391;51.306;22.680;2022-12-29T06:00:02;3.78;71.36
70051;SHT30;57391;51.306;22.680;2022-12-29T06:02:41;3.77;71.31
70051;SHT30;57391;51.306;22.680;2022-12-29T06:05:08;3.77;71.60
70051;SHT30;57391;51.306;22.680;2022-12-29T06:07:37;3.76;71.69
70051;SHT30;57391;51.306;22.680;2022-12-29T06:10:05;3.76;71.58
70051;SHT30;57391;51.306;22.680;2022-12-29T06:12:41;3.77;71.54
70051;SHT30;57391;51.306;22.680;2022-12-29T06:15:08;3.77;71.45
70051;SHT30;57391;51.306;22.680;2022-12-29T06:17:38;3.76;71.21
70051;SHT30;57391;51.306;22.680;2022-12-29T06:20:07;3.75;71.15
70051;SHT30;57391;51.306;22.680;2022-12-29T06:22:36;3.75;71.32
70051;SHT30;57391;51.306;22.680;2022-12-29T06:25:03;3.73;71.37
70051;SHT30;57391;51.306;22.680;2022-12-29T06:27:33;3.72;71.36
70051;SHT30;57391;51.306;22.680;2022-12-29T06:30:00;3.72;71.33
70051;SHT30;57391;51.306;22.680;2022-12-29T06:32:28;3.71;71.22
70051;SHT30;57391;51.306;22.680;2022-12-29T06:35:01;3.71;71.13
70051;SHT30;57391;51.306;22.680;2022-12-29T06:37:30;3.72;71.14
70051;SHT30;57391;51.306;22.680;2022-12-29T06:39:57;3.72;71.02
70051;SHT30;57391;51.306;22.680;2022-12-29T06:42:29;3.73;70.99
70051;SHT30;57391;51.306;22.680;2022-12-29T06:45:17;3.73;70.86
70051;SHT30;57391;51.306;22.680;2022-12-29T06:47:44;3.74;70.61
70051;SHT30;57391;51.306;22.680;2022-12-29T06:50:11;3.74;70.58
70051;SHT30;57391;51.306;22.680;2022-12-29T06:52:38;3.77;70.53
70051;SHT30;57391;51.306;22.680;2022-12-29T06:55:05;3.78;70.46
70051;SHT30;57391;51.306;22.680;2022-12-29T06:57:32;3.79;70.34
70051;SHT30;57391;51.306;22.680;2022-12-29T07:00:00;3.80;70.17
70051;SHT30;57391;51.306;22.680;2022-12-29T07:02:27;3.82;70.01
70051;SHT30;57391;51.306;22.680;2022-12-29T07:04:54;3.83;69.92
70051;SHT30;57391;51.306;22.680;2022-12-29T07:07:22;3.85;69.76
70051;SHT30;57391;51.306;22.680;2022-12-29T07:09:49;3.86;69.51
70051;SHT30;57391;51.306;22.680;2022-12-29T07:12:16;3.88;69.34
70051;SHT30;57391;51.306;22.680;2022-12-29T07:14:43;3.91;69.31
70051;SHT30;57391;51.306;22.680;2022-12-29T07:17:10;3.92;69.31
70051;SHT30;57391;51.306;22.680;2022-12-29T07:19:37;3.93;69.31
70051;SHT30;57391;51.306;22.680;2022-12-29T07:22:04;3.96;69.22
70051;SHT30;57391;51.306;22.680;2022-12-29T07:24:31;3.98;69.07
70051;SHT30;57391;51.306;22.680;2022-12-29T07:26:58;4.00;68.90
70051;SHT30;57391;51.306;22.680;2022-12-29T07:29:25;4.02;68.90
70051;SHT30;57391;51.306;22.680;2022-12-29T07:31:52;4.03;68.70
70051;SHT30;57391;51.306;22.680;2022-12-29T07:34:20;4.05;68.89
70051;SHT30;57391;51.306;22.680;2022-12-29T07:36:47;4.07;68.81
70051;SHT30;57391;51.306;22.680;2022-12-29T07:39:14;4.09;68.58
70051;SHT30;57391;51.306;22.680;2022-12-29T07:41:41;4.11;68.47
70051;SHT30;57391;51.306;22.680;2022-12-29T07:44:16;4.14;68.17
70051;SHT30;57391;51.306;22.680;2022-12-29T07:47:18;4.19;67.91
70051;SHT30;57391;51.306;22.680;2022-12-29T07:49:45;4.23;67.88
70051;SHT30;57391;51.306;22.680;2022-12-29T07:52:12;4.28;67.71
70051;SHT30;57391;51.306;22.680;2022-12-29T07:54:39;4.34;67.57
70051;SHT30;57391;51.306;22.680;2022-12-29T07:57:07;4.37;67.26
70051;SHT30;57391;51.306;22.680;2022-12-29T07:59:34;4.42;67.23
70051;SHT30;57391;51.306;22.680;2022-12-29T08:02:01;4.46;67.17
70051;SHT30;57391;51.306;22.680;2022-12-29T08:04:29;4.49;67.12
70051;SHT30;57391;51.306;22.680;2022-12-29T08:06:57;4.54;66.92
70051;SHT30;57391;51.306;22.680;2022-12-29T08:09:33;4.61;66.65
70051;SHT30;57391;51.306;22.680;2022-12-29T08:12:00;4.66;66.52
70051;SHT30;57391;51.306;22.680;2022-12-29T08:14:27;4.67;66.54
70051;SHT30;57391;51.306;22.680;2022-12-29T08:16:54;4.71;66.61
70051;SHT30;57391;51.306;22.680;2022-12-29T08:19:22;4.71;66.32
70051;SHT30;57391;51.306;22.680;2022-12-29T08:21:49;4.72;66.22
70051;SHT30;57391;51.306;22.680;2022-12-29T08:24:17;4.75;66.06
70051;SHT30;57391;51.306;22.680;2022-12-29T08:26:44;4.77;66.13
70051;SHT30;57391;51.306;22.680;2022-12-29T08:29:12;4.80;66.01
70051;SHT30;57391;51.306;22.680;2022-12-29T08:31:39;4.81;65.87
70051;SHT30;57391;51.306;22.680;2022-12-29T08:34:06;4.81;65.90
70051;SHT30;57391;51.306;22.680;2022-12-29T08:36:33;4.82;65.89
70051;SHT30;57391;51.306;22.680;2022-12-29T08:39:01;4.83;65.80
70051;SHT30;57391;51.306;22.680;2022-12-29T08:41:29;4.83;65.76
70051;SHT30;57391;51.306;22.680;2022-12-29T08:43:56;4.84;65.62
70051;SHT30;57391;51.306;22.680;2022-12-29T08:46:24;4.84;65.78
70051;SHT30;57391;51.306;22.680;2022-12-29T08:48:51;4.84;65.89
70051;SHT30;57391;51.306;22.680;2022-12-29T08:51:18;4.86;65.85
70051;SHT30;57391;51.306;22.680;2022-12-29T08:53:45;4.89;65.89
70051;SHT30;57391;51.306;22.680;2022-12-29T08:56:12;4.93;65.81
70051;SHT30;57391;51.306;22.680;2022-12-29T08:58:44;4.98;65.81
70051;SHT30;57391;51.306;22.680;2022-12-29T09:01:12;5.04;66.07
70051;SHT30;57391;51.306;22.680;2022-12-29T09:03:39;5.11;65.72
70051;SHT30;57391;51.306;22.680;2022-12-29T09:06:06;5.17;65.36
70051;SHT30;57391;51.306;22.680;2022-12-29T09:08:33;5.22;65.33
70051;SHT30;57391;51.306;22.680;2022-12-29T09:11:07;5.28;65.08
70051;SHT30;57391;51.306;22.680;2022-12-29T09:13:39;5.43;65.00
70051;SHT30;57391;51.306;22.680;2022-12-29T09:16:06;5.58;65.10
70051;SHT30;57391;51.306;22.680;2022-12-29T09:18:34;5.65;64.51
70051;SHT30;57391;51.306;22.680;2022-12-29T09:21:03;5.71;64.01
70051;SHT30;57391;51.306;22.680;2022-12-29T09:23:32;5.74;63.97
70051;SHT30;57391;51.306;22.680;2022-12-29T09:26:01;5.77;63.91
70051;SHT30;57391;51.306;22.680;2022-12-29T09:28:30;5.78;63.79
70051;SHT30;57391;51.306;22.680;2022-12-29T09:30:58;5.81;63.43
70051;SHT30;57391;51.306;22.680;2022-12-29T09:33:26;5.82;63.68
70051;SHT30;57391;51.306;22.680;2022-12-29T09:35:55;5.85;63.73
70051;SHT30;57391;51.306;22.680;2022-12-29T09:38:25;5.92;63.51
70051;SHT30;57391;51.306;22.680;2022-12-29T09:40:54;5.98;63.42
70051;SHT30;57391;51.306;22.680;2022-12-29T09:46:26;6.11;63.70
70051;SHT30;57391;51.306;22.680;2022-12-29T09:51:51;6.18;62.70
70051;SHT30;57391;51.306;22.680;2022-12-29T09:57:26;6.20;62.20
70051;SHT30;57391;51.306;22.680;2022-12-29T10:00:05;6.24;62.56
70051;SHT30;57391;51.306;22.680;2022-12-29T10:02:52;6.25;62.37
70051;SHT30;57391;51.306;22.680;2022-12-29T10:08:23;6.24;62.31
70051;SHT30;57391;51.306;22.680;2022-12-29T10:11:21;6.25;61.88
70051;SHT30;57391;51.306;22.680;2022-12-29T10:19:45;6.25;62.13
70051;SHT30;57391;51.306;22.680;2022-12-29T10:23:12;6.25;61.69
70051;SHT30;57391;51.306;22.680;2022-12-29T10:25:55;6.27;61.97
70051;SHT30;57391;51.306;22.680;2022-12-29T10:31:03;6.35;62.25
70051;SHT30;57391;51.306;22.680;2022-12-29T10:33:39;6.38;61.87
70051;SHT30;57391;51.306;22.680;2022-12-29T10:36:13;6.41;61.62
70051;SHT30;57391;51.306;22.680;2022-12-29T10:38:48;6.44;62.00
70051;SHT30;57391;51.306;22.680;2022-12-29T10:42:33;6.47;61.64
70051;SHT30;57391;51.306;22.680;2022-12-29T10:45:11;6.49;61.45
70051;SHT30;57391;51.306;22.680;2022-12-29T10:50:35;6.55;61.89
70051;SHT30;57391;51.306;22.680;2022-12-29T10:53:15;6.57;61.78
70051;SHT30;57391;51.306;22.680;2022-12-29T10:55:49;6.60;61.79
70051;SHT30;57391;51.306;22.680;2022-12-29T10:58:17;6.62;61.38
70051;SHT30;57391;51.306;22.680;2022-12-29T11:00:51;6.64;61.61
70051;SHT30;57391;51.306;22.680;2022-12-29T11:06:44;6.68;61.35
70051;SHT30;57391;51.306;22.680;2022-12-29T11:09:16;6.71;61.24
70051;SHT30;57391;51.306;22.680;2022-12-29T11:12:25;6.73;61.08
70051;SHT30;57391;51.306;22.680;2022-12-29T11:15:17;6.77;61.22
70051;SHT30;57391;51.306;22.680;2022-12-29T11:23:02;7.03;60.69
70051;SHT30;57391;51.306;22.680;2022-12-29T11:26:31;7.15;60.49
70051;SHT30;57391;51.306;22.680;2022-12-29T11:28:43;7.26;60.30
70051;SHT30;57391;51.306;22.680;2022-12-29T11:31:17;7.34;59.79
70051;SHT30;57391;51.306;22.680;2022-12-29T11:33:48;7.42;59.93
70051;SHT30;57391;51.306;22.680;2022-12-29T11:36:19;7.51;59.56
70051;SHT30;57391;51.306;22.680;2022-12-29T11:38:52;7.60;59.23
70051;SHT30;57391;51.306;22.680;2022-12-29T11:41:27;7.66;58.91
70051;SHT30;57391;51.306;22.680;2022-12-29T11:44:02;7.72;58.83
70051;SHT30;57391;51.306;22.680;2022-12-29T11:46:36;7.79;58.98
70051;SHT30;57391;51.306;22.680;2022-12-29T11:49:19;7.93;58.77
70051;SHT30;57391;51.306;22.680;2022-12-29T11:51:51;8.09;58.90
70051;SHT30;57391;51.306;22.680;2022-12-29T11:54:28;8.24;58.43
70051;SHT30;57391;51.306;22.680;2022-12-29T11:57:08;8.29;57.16
70051;SHT30;57391;51.306;22.680;2022-12-29T11:59:51;8.26;57.27
70051;SHT30;57391;51.306;22.680;2022-12-29T12:02:39;8.22;57.48
70051;SHT30;57391;51.306;22.680;2022-12-29T12:05:24;8.15;57.55
70051;SHT30;57391;51.306;22.680;2022-12-29T12:07:59;8.09;57.97
70051;SHT30;57391;51.306;22.680;2022-12-29T12:10:56;8.02;58.27
70051;SHT30;57391;51.306;22.680;2022-12-29T12:13:37;7.97;58.44
70051;SHT30;57391;51.306;22.680;2022-12-29T12:16:50;7.94;58.68
70051;SHT30;57391;51.306;22.680;2022-12-29T12:19:42;7.91;59.09
70051;SHT30;57391;51.306;22.680;2022-12-29T12:22:17;7.90;58.99
70051;SHT30;57391;51.306;22.680;2022-12-29T12:28:00;7.90;58.98
70051;SHT30;57391;51.306;22.680;2022-12-29T12:30:43;7.90;58.94
70051;SHT30;57391;51.306;22.680;2022-12-29T12:33:27;7.94;59.06
70051;SHT30;57391;51.306;22.680;2022-12-29T12:36:18;7.97;58.86
70051;SHT30;57391;51.306;22.680;2022-12-29T12:39:18;7.97;58.79
70051;SHT30;57391;51.306;22.680;2022-12-29T12:42:11;8.04;58.75
70051;SHT30;57391;51.306;22.680;2022-12-29T12:53:49;8.40;58.25
70051;SHT30;57391;51.306;22.680;2022-12-29T12:56:38;8.46;57.96
70051;SHT30;57391;51.306;22.680;2022-12-29T13:11:32;8.56;57.53
70051;SHT30;57391;51.306;22.680;2022-12-29T13:14:14;8.51;57.81
70051;SHT30;57391;51.306;22.680;2022-12-29T13:20:36;8.42;58.24
70051;SHT30;57391;51.306;22.680;2022-12-29T13:23:24;8.41;58.18
70051;SHT30;57391;51.306;22.680;2022-12-29T13:26:05;8.40;58.32
70051;SHT30;57391;51.306;22.680;2022-12-29T13:37:01;8.26;58.62
70051;SHT30;57391;51.306;22.680;2022-12-29T13:39:39;8.20;58.91
70051;SHT30;57391;51.306;22.680;2022-12-29T13:42:22;8.14;59.11
70051;SHT30;57391;51.306;22.680;2022-12-29T13:44:57;8.07;59.21
70051;SHT30;57391;51.306;22.680;2022-12-29T13:47:31;8.03;59.38
70051;SHT30;57391;51.306;22.680;2022-12-29T13:50:08;7.96;59.45
70051;SHT30;57391;51.306;22.680;2022-12-29T13:52:45;7.90;59.47
70051;SHT30;57391;51.306;22.680;2022-12-29T14:01:15;7.70;59.61
70051;SHT30;57391;51.306;22.680;2022-12-29T14:04:02;7.66;59.57
70051;SHT30;57391;51.306;22.680;2022-12-29T14:06:39;7.59;59.63
70051;SHT30;57391;51.306;22.680;2022-12-29T14:09:27;7.55;59.74
70051;SHT30;57391;51.306;22.680;2022-12-29T14:17:44;7.46;60.46
70051;SHT30;57391;51.306;22.680;2022-12-29T14:23:30;7.45;61.02
70051;SHT30;57391;51.306;22.680;2022-12-29T14:26:13;7.45;61.04
70051;SHT30;57391;51.306;22.680;2022-12-29T14:28:42;7.45;61.25
70051;SHT30;57391;51.306;22.680;2022-12-29T14:36:39;7.33;61.22
70051;SHT30;57391;51.306;22.680;2022-12-29T14:44:47;7.09;61.81
70051;SHT30;57391;51.306;22.680;2022-12-29T14:47:19;7.03;62.06
70051;SHT30;57391;51.306;22.680;2022-12-29T14:50:06;6.95;62.30
70051;SHT30;57391;51.306;22.680;2022-12-29T14:52:46;6.86;62.58
70051;SHT30;57391;51.306;22.680;2022-12-29T14:57:48;6.73;63.04
70051;SHT30;57391;51.306;22.680;2022-12-29T15:00:21;6.67;63.29
70051;SHT30;57391;51.306;22.680;2022-12-29T15:03:01;6.61;63.46
70051;SHT30;57391;51.306;22.680;2022-12-29T15:08:22;6.53;63.87
70051;SHT30;57391;51.306;22.680;2022-12-29T15:10:56;6.48;64.05
70051;SHT30;57391;51.306;22.680;2022-12-29T15:13:39;6.45;64.22
70051;SHT30;57391;51.306;22.680;2022-12-29T15:16:29;6.43;64.28
70051;SHT30;57391;51.306;22.680;2022-12-29T15:19:03;6.40;64.43
70051;SHT30;57391;51.306;22.680;2022-12-29T15:21:32;6.36;64.61
70051;SHT30;57391;51.306;22.680;2022-12-29T15:24:03;6.35;64.66
70051;SHT30;57391;51.306;22.680;2022-12-29T15:26:38;6.33;64.77
70051;SHT30;57391;51.306;22.680;2022-12-29T15:32:19;6.29;64.88
70051;SHT30;57391;51.306;22.680;2022-12-29T15:34:53;6.27;64.95
70051;SHT30;57391;51.306;22.680;2022-12-29T15:37:27;6.27;65.09
70051;SHT30;57391;51.306;22.680;2022-12-29T15:40:02;6.25;65.12
70051;SHT30;57391;51.306;22.680;2022-12-29T15:45:30;6.23;65.26
70051;SHT30;57391;51.306;22.680;2022-12-29T15:48:02;6.25;65.23
70051;SHT30;57391;51.306;22.680;2022-12-29T15:50:32;6.26;65.29
70051;SHT30;57391;51.306;22.680;2022-12-29T15:53:03;6.27;65.32
70051;SHT30;57391;51.306;22.680;2022-12-29T15:55:39;6.29;65.32
70051;SHT30;57391;51.306;22.680;2022-12-29T15:58:22;6.30;65.41
70051;SHT30;57391;51.306;22.680;2022-12-29T16:00:56;6.30;65.43
70051;SHT30;57391;51.306;22.680;2022-12-29T16:03:29;6.31;65.38
70051;SHT30;57391;51.306;22.680;2022-12-29T16:06:08;6.32;65.31
70051;SHT30;57391;51.306;22.680;2022-12-29T16:08:57;6.33;65.34
70051;SHT30;57391;51.306;22.680;2022-12-29T16:11:37;6.32;65.33
70051;SHT30;57391;51.306;22.680;2022-12-29T16:14:18;6.35;65.30
70051;SHT30;57391;51.306;22.680;2022-12-29T16:16:56;6.37;65.31
70051;SHT30;57391;51.306;22.680;2022-12-29T16:19:39;6.38;65.23
70051;SHT30;57391;51.306;22.680;2022-12-29T16:22:10;6.39;65.13
70051;SHT30;57391;51.306;22.680;2022-12-29T16:24:47;6.40;65.15
70051;SHT30;57391;51.306;22.680;2022-12-29T16:27:19;6.41;65.08
70051;SHT30;57391;51.306;22.680;2022-12-29T16:29:53;6.41;65.14
70051;SHT30;57391;51.306;22.680;2022-12-29T16:32:29;6.41;65.09
70051;SHT30;57391;51.306;22.680;2022-12-29T16:35:19;6.42;65.12
70051;SHT30;57391;51.306;22.680;2022-12-29T16:38:35;6.43;65.09
70051;SHT30;57391;51.306;22.680;2022-12-29T16:40:50;6.45;65.19
70051;SHT30;57391;51.306;22.680;2022-12-29T16:43:25;6.47;65.14
70051;SHT30;57391;51.306;22.680;2022-12-29T16:48:30;6.54;65.05
70051;SHT30;57391;51.306;22.680;2022-12-29T16:51:02;6.57;65.00
70051;SHT30;57391;51.306;22.680;2022-12-29T16:53:50;6.61;64.82
70051;SHT30;57391;51.306;22.680;2022-12-29T16:56:22;6.62;64.97
70051;SHT30;57391;51.306;22.680;2022-12-29T16:59:39;6.63;64.93
70051;SHT30;57391;51.306;22.680;2022-12-29T17:02:05;6.65;65.04
70051;SHT30;57391;51.306;22.680;2022-12-29T17:04:41;6.66;64.95
70051;SHT30;57391;51.306;22.680;2022-12-29T17:07:16;6.66;64.73
70051;SHT30;57391;51.306;22.680;2022-12-29T17:09:47;6.66;64.80
70051;SHT30;57391;51.306;22.680;2022-12-29T17:12:19;6.66;64.73
70051;SHT30;57391;51.306;22.680;2022-12-29T17:14:59;6.64;64.79
70051;SHT30;57391;51.306;22.680;2022-12-29T17:17:40;6.61;64.84
70051;SHT30;57391;51.306;22.680;2022-12-29T17:22:54;6.55;65.10
70051;SHT30;57391;51.306;22.680;2022-12-29T17:25:29;6.53;65.18
70051;SHT30;57391;51.306;22.680;2022-12-29T17:28:18;6.51;65.27
70051;SHT30;57391;51.306;22.680;2022-12-29T17:30:51;6.49;65.28
70051;SHT30;57391;51.306;22.680;2022-12-29T17:33:21;6.48;65.33
70051;SHT30;57391;51.306;22.680;2022-12-29T17:35:49;6.46;65.37
70051;SHT30;57391;51.306;22.680;2022-12-29T17:38:17;6.44;65.42
70051;SHT30;57391;51.306;22.680;2022-12-29T17:40:53;6.41;65.49
70051;SHT30;57391;51.306;22.680;2022-12-29T17:43:22;6.38;65.52
70051;SHT30;57391;51.306;22.680;2022-12-29T17:45:54;6.34;65.63
70051;SHT30;57391;51.306;22.680;2022-12-29T17:48:24;6.31;65.77
70051;SHT30;57391;51.306;22.680;2022-12-29T17:50:52;6.28;65.83
70051;SHT30;57391;51.306;22.680;2022-12-29T17:53:24;6.26;65.93
70051;SHT30;57391;51.306;22.680;2022-12-29T17:55:54;6.22;66.05
70051;SHT30;57391;51.306;22.680;2022-12-29T17:58:26;6.19;66.18
70051;SHT30;57391;51.306;22.680;2022-12-29T18:00:58;6.15;66.28
70051;SHT30;57391;51.306;22.680;2022-12-29T18:03:29;6.14;66.39
70051;SHT30;57391;51.306;22.680;2022-12-29T18:06:00;6.11;66.44
70051;SHT30;57391;51.306;22.680;2022-12-29T18:08:30;6.09;66.57
70051;SHT30;57391;51.306;22.680;2022-12-29T18:11:00;6.07;66.64
70051;SHT30;57391;51.306;22.680;2022-12-29T18:13:28;6.05;66.69
70051;SHT30;57391;51.306;22.680;2022-12-29T18:15:59;6.03;66.79
70051;SHT30;57391;51.306;22.680;2022-12-29T18:18:27;6.01;66.89
70051;SHT30;57391;51.306;22.680;2022-12-29T18:20:55;6.00;67.00
70051;SHT30;57391;51.306;22.680;2022-12-29T18:23:26;5.99;67.09
70051;SHT30;57391;51.306;22.680;2022-12-29T18:26:04;5.99;67.13
70051;SHT30;57391;51.306;22.680;2022-12-29T18:28:41;5.99;67.21
70051;SHT30;57391;51.306;22.680;2022-12-29T18:31:15;5.99;67.28
70051;SHT30;57391;51.306;22.680;2022-12-29T18:33:50;6.00;67.29
70051;SHT30;57391;51.306;22.680;2022-12-29T18:36:19;6.01;67.35
70051;SHT30;57391;51.306;22.680;2022-12-29T18:38:47;6.01;67.37
70051;SHT30;57391;51.306;22.680;2022-12-29T18:41:21;6.03;67.34
70051;SHT30;57391;51.306;22.680;2022-12-29T18:43:51;6.02;67.41
70051;SHT30;57391;51.306;22.680;2022-12-29T18:46:18;6.01;67.47
70051;SHT30;57391;51.306;22.680;2022-12-29T18:48:46;6.01;67.50